createdAt,value
2018-09-11T00:01:02.119Z,81.72
2018-09-11T00:02:08.641Z,82.01
2018-09-11T00:03:10.084Z,82.01
2018-09-11T00:04:15.008Z,82.20
2018-09-11T00:06:36.221Z,82.78
2018-09-11T00:07:40.737Z,82.87
2018-09-11T00:08:34.294Z,82.68
2018-09-11T00:10:59.300Z,82.59
2018-09-11T00:11:51.836Z,82.35
2018-09-11T00:13:04.234Z,82.84
2018-09-11T00:14:09.464Z,82.84
2018-09-11T00:15:25.038Z,82.64
2018-09-11T00:16:21.878Z,82.84
2018-09-11T00:17:17.888Z,83.31
2018-09-11T00:18:33.874Z,83.03
2018-09-11T00:20:52.528Z,83.41
2018-09-11T00:21:46.190Z,83.80
2018-09-11T00:22:52.749Z,83.98
2018-09-11T00:23:54.707Z,83.89
2018-09-11T00:25:00.806Z,83.60
2018-09-11T00:26:00.456Z,83.89
2018-09-11T00:27:14.393Z,84.27
2018-09-11T00:28:20.650Z,84.08
2018-09-11T00:29:31.511Z,84.27
2018-09-11T00:30:46.165Z,83.98
2018-09-11T00:31:39.721Z,84.18
2018-09-11T00:32:45.361Z,84.27
2018-09-11T00:33:52.232Z,84.08
2018-09-11T00:34:52.344Z,84.47
2018-09-11T00:36:00.958Z,84.47
2018-09-11T00:37:18.776Z,84.08
2018-09-11T00:39:16.443Z,84.85
2018-09-11T00:41:28.851Z,84.75
2018-09-11T00:42:27.424Z,84.95
2018-09-11T00:44:40.960Z,84.47
2018-09-11T00:45:53.975Z,84.75
2018-09-11T00:46:47.430Z,84.18
2018-09-11T00:47:57.680Z,85.24
2018-09-11T00:49:12.239Z,85.10
2018-09-11T00:50:04.252Z,84.66
2018-09-11T00:53:19.434Z,85.04
2018-09-11T00:54:29.686Z,84.66
2018-09-11T00:55:35.939Z,85.14
2018-09-11T00:56:45.677Z,84.75
2018-09-11T00:58:48.974Z,84.95
2018-09-11T01:00:05.775Z,84.81
2018-09-11T01:01:21.251Z,85.42
2018-09-11T01:03:21.063Z,85.04
2018-09-11T01:04:27.421Z,85.04
2018-09-11T01:05:35.939Z,85.00
2018-09-11T01:06:38.292Z,85.24
2018-09-11T01:08:47.116Z,85.19
2018-09-11T01:09:44.273Z,84.81
2018-09-11T01:11:03.006Z,84.56
2018-09-11T01:13:10.295Z,85.14
2018-09-11T01:14:03.141Z,85.04
2018-09-11T01:15:16.050Z,84.85
2018-09-11T01:17:36.138Z,84.81
2018-09-11T01:18:27.135Z,84.66
2018-09-11T01:19:45.072Z,84.56
2018-09-11T01:20:46.817Z,84.33
2018-09-11T01:21:49.284Z,84.47
2018-09-11T01:23:11.412Z,84.56
2018-09-11T01:23:56.880Z,84.66
2018-09-11T01:25:17.883Z,84.08
2018-09-11T01:26:02.837Z,84.08
2018-09-11T01:27:14.420Z,84.08
2018-09-11T01:28:28.558Z,84.18
2018-09-11T01:29:26.112Z,84.18
2018-09-11T01:30:35.337Z,83.60
2018-09-11T01:31:36.881Z,83.60
2018-09-11T01:32:42.010Z,83.60
2018-09-11T01:33:49.291Z,83.51
2018-09-11T01:34:52.167Z,83.41
2018-09-11T01:36:11.940Z,83.12
2018-09-11T01:37:03.856Z,82.64
2018-09-11T01:38:12.470Z,82.84
2018-09-11T01:41:35.536Z,83.12
2018-09-11T01:42:24.997Z,82.74
2018-09-11T01:43:48.151Z,82.84
2018-09-11T01:45:53.085Z,82.54
2018-09-11T01:47:03.130Z,82.07
2018-09-11T01:48:02.832Z,82.64
2018-09-11T01:49:15.132Z,82.16
2018-09-11T01:50:10.120Z,82.54
2018-09-11T01:53:27.347Z,81.78
2018-09-11T01:55:39.038Z,81.97
2018-09-11T01:57:58.306Z,81.68
2018-09-11T01:59:05.176Z,80.91
2018-09-11T02:01:12.591Z,81.10
2018-09-11T02:02:11.554Z,81.10
2018-09-11T02:03:33.688Z,81.78
2018-09-11T02:05:49.163Z,81.49
2018-09-11T02:06:50.193Z,81.10
2018-09-11T02:07:42.113Z,81.49
2018-09-11T02:09:50.527Z,81.10
2018-09-11T02:11:02.182Z,81.59
2018-09-11T02:12:02.321Z,81.10
2018-09-11T02:13:09.601Z,81.59
2018-09-11T02:14:11.656Z,81.59
2018-09-11T02:15:25.693Z,81.49
2018-09-11T02:16:30.515Z,81.40
2018-09-11T02:17:24.686Z,81.20
2018-09-11T02:18:37.805Z,81.49
2018-09-11T02:19:41.909Z,81.01
2018-09-11T02:20:45.911Z,81.59
2018-09-11T02:21:51.659Z,81.30
2018-09-11T02:22:58.627Z,81.20
2018-09-11T02:24:11.953Z,81.10
2018-09-11T02:26:12.069Z,80.91
2018-09-11T02:27:24.468Z,81.20
2018-09-11T02:28:26.934Z,81.40
2018-09-11T02:29:32.983Z,80.97
2018-09-11T02:30:37.602Z,81.54
2018-09-11T02:31:50.104Z,81.54
2018-09-11T02:32:44.173Z,81.59
2018-09-11T02:33:51.044Z,81.59
2018-09-11T02:34:54.228Z,80.91
2018-09-11T02:36:04.169Z,80.91
2018-09-11T02:37:14.623Z,81.78
2018-09-11T02:38:08.076Z,81.59
2018-09-11T02:39:30.821Z,81.16
2018-09-11T02:40:27.043Z,80.97
2018-09-11T02:41:38.724Z,81.07
2018-09-11T02:42:38.835Z,80.97
2018-09-11T02:43:39.151Z,81.64
2018-09-11T02:44:46.842Z,81.45
2018-09-11T02:45:54.846Z,80.97
2018-09-11T02:47:00.381Z,80.97
2018-09-11T02:48:04.793Z,81.64
2018-09-11T02:49:20.391Z,81.26
2018-09-11T02:50:21.605Z,81.20
2018-09-11T02:51:41.172Z,81.07
2018-09-11T02:52:43.636Z,81.64
2018-09-11T02:53:29.923Z,81.59
2018-09-11T02:54:35.875Z,81.16
2018-09-11T02:55:51.036Z,81.30
2018-09-11T02:57:00.162Z,81.26
2018-09-11T02:57:53.719Z,80.78
2018-09-11T02:58:55.977Z,80.58
2018-09-11T03:00:10.529Z,80.87
2018-09-11T03:01:03.205Z,80.97
2018-09-11T03:02:15.167Z,81.07
2018-09-11T03:03:24.175Z,81.35
2018-09-11T03:04:27.871Z,81.16
2018-09-11T03:05:23.476Z,80.78
2018-09-11T03:06:38.030Z,81.26
2018-09-11T03:07:38.341Z,81.16
2018-09-11T03:08:52.279Z,81.07
2018-09-11T03:09:52.290Z,81.68
2018-09-11T03:11:05.610Z,81.45
2018-09-11T03:12:10.637Z,81.54
2018-09-11T03:13:03.578Z,81.26
2018-09-11T03:16:27.263Z,81.45
2018-09-11T03:17:39.252Z,81.16
2018-09-11T03:18:40.829Z,81.16
2018-09-11T03:19:45.826Z,80.97
2018-09-11T03:20:54.743Z,81.26
2018-09-11T03:21:57.413Z,81.07
2018-09-11T03:22:57.422Z,81.64
2018-09-11T03:24:05.523Z,80.97
2018-09-11T03:25:11.368Z,81.07
2018-09-11T03:27:20.811Z,81.16
2018-09-11T03:28:24.501Z,81.07
2018-09-11T03:29:39.153Z,80.97
2018-09-11T03:31:46.955Z,80.97
2018-09-11T03:32:53.010Z,81.16
2018-09-11T03:36:11.570Z,81.07
2018-09-11T03:37:08.096Z,80.78
2018-09-11T03:38:26.434Z,81.07
2018-09-11T03:39:23.578Z,81.07
2018-09-11T03:40:29.423Z,81.16
2018-09-11T03:41:36.697Z,81.07
2018-09-11T03:42:51.454Z,81.74
2018-09-11T03:43:51.156Z,81.54
2018-09-11T03:44:45.326Z,81.35
2018-09-11T03:46:00.702Z,81.35
2018-09-11T03:47:00.913Z,81.74
2018-09-11T03:48:14.540Z,81.54
2018-09-11T03:49:08.812Z,81.74
2018-09-11T03:52:25.225Z,81.54
2018-09-11T03:53:38.339Z,81.64
2018-09-11T03:56:52.704Z,81.07
2018-09-11T03:59:04.305Z,81.07
2018-09-11T04:00:03.689Z,81.64
2018-09-11T04:01:08.927Z,81.54
2018-09-11T04:02:21.015Z,81.74
2018-09-11T04:03:27.065Z,81.07
2018-09-11T04:04:38.749Z,81.26
2018-09-11T04:05:39.680Z,81.07
2018-09-11T04:06:36.414Z,81.64
2018-09-11T04:07:45.433Z,81.16
2018-09-11T04:08:57.724Z,80.87
2018-09-11T04:09:59.991Z,81.54
2018-09-11T04:11:03.991Z,81.64
2018-09-11T04:12:12.396Z,81.07
2018-09-11T04:13:15.170Z,81.54
2018-09-11T04:14:18.151Z,81.20
2018-09-11T04:16:28.919Z,81.78
2018-09-11T04:17:38.144Z,81.30
2018-09-11T04:18:46.349Z,80.82
2018-09-11T04:20:58.650Z,80.82
2018-09-11T04:22:01.731Z,80.91
2018-09-11T04:24:19.360Z,81.01
2018-09-11T04:25:21.929Z,81.01
2018-09-11T04:27:30.450Z,81.01
2018-09-11T04:28:37.421Z,80.82
2018-09-11T04:29:32.923Z,80.73
2018-09-11T04:30:48.600Z,80.34
2018-09-11T04:31:54.447Z,80.82
2018-09-11T04:32:54.454Z,80.05
2018-09-11T04:34:02.961Z,80.53
2018-09-11T04:35:15.569Z,80.73
2018-09-11T04:36:11.482Z,80.43
2018-09-11T04:40:33.123Z,79.67
2018-09-11T04:41:40.097Z,79.76
2018-09-11T04:42:40.616Z,79.19
2018-09-11T04:43:53.117Z,80.15
2018-09-11T04:44:54.253Z,79.90
2018-09-11T04:47:02.157Z,79.80
2018-09-11T04:49:12.211Z,79.42
2018-09-11T04:52:35.894Z,80.28
2018-09-11T04:53:38.260Z,79.61
2018-09-11T04:54:36.117Z,79.99
2018-09-11T04:56:01.990Z,79.13
2018-09-11T04:56:53.954Z,79.42
2018-09-11T04:58:03.590Z,78.45
2018-09-11T04:59:10.360Z,78.94
2018-09-11T05:00:25.939Z,78.55
2018-09-11T05:01:30.036Z,78.75
2018-09-11T05:02:23.081Z,78.65
2018-09-11T05:04:45.116Z,78.94
2018-09-11T05:05:51.165Z,78.84
2018-09-11T05:06:49.228Z,78.65
2018-09-11T05:07:50.465Z,78.65
2018-09-11T05:09:03.687Z,78.75
2018-09-11T05:11:14.659Z,78.55
2018-09-11T05:12:15.492Z,78.94
2018-09-11T05:13:15.398Z,78.75
2018-09-11T05:14:23.697Z,78.65
2018-09-11T05:15:31.793Z,78.08
2018-09-11T05:17:41.848Z,78.94
2018-09-11T05:19:02.561Z,78.75
2018-09-11T05:19:57.228Z,78.75
2018-09-11T05:20:54.983Z,78.36
2018-09-11T05:22:08.920Z,78.17
2018-09-11T05:23:05.446Z,78.27
2018-09-11T05:24:09.554Z,78.36
2018-09-11T05:25:22.977Z,78.75
2018-09-11T05:26:31.394Z,78.55
2018-09-11T05:27:28.590Z,78.27
2018-09-11T05:28:41.743Z,78.55
2018-09-11T05:29:38.170Z,78.65
2018-09-11T05:31:48.222Z,78.65
2018-09-11T05:32:56.833Z,79.42
2018-09-11T05:34:06.570Z,78.84
2018-09-11T05:36:19.183Z,78.84
2018-09-11T05:39:28.427Z,78.65
2018-09-11T05:40:38.881Z,78.55
2018-09-11T05:41:49.648Z,78.75
2018-09-11T05:42:47.097Z,78.75
2018-09-11T05:43:48.442Z,78.65
2018-09-11T05:47:10.538Z,79.32
2018-09-11T05:48:28.504Z,79.42
2018-09-11T05:50:41.124Z,79.32
2018-09-11T05:51:42.458Z,79.32
2018-09-11T05:52:46.359Z,78.65
2018-09-11T05:53:41.757Z,78.94
2018-09-11T05:54:46.990Z,78.75
2018-09-11T05:56:04.612Z,78.75
2018-09-11T05:57:00.117Z,78.65
2018-09-11T05:57:59.714Z,78.84
2018-09-11T05:59:06.483Z,79.42
2018-09-11T06:00:29.222Z,79.32
2018-09-11T06:01:17.759Z,79.22
2018-09-11T06:03:38.572Z,79.32
2018-09-11T06:04:31.819Z,79.42
2018-09-11T06:05:37.569Z,79.32
2018-09-11T06:06:55.289Z,79.32
2018-09-11T06:09:01.040Z,79.55
2018-09-11T06:10:15.490Z,78.84
2018-09-11T06:11:21.645Z,79.13
2018-09-11T06:13:22.682Z,79.65
2018-09-11T06:15:36.729Z,78.65
2018-09-11T06:16:38.785Z,79.46
2018-09-11T06:18:53.650Z,78.98
2018-09-11T06:20:01.034Z,78.59
2018-09-11T06:21:05.548Z,78.88
2018-09-11T06:22:16.208Z,78.40
2018-09-11T06:23:17.753Z,78.69
2018-09-11T06:25:25.248Z,78.69
2018-09-11T06:26:33.348Z,78.50
2018-09-11T06:27:46.362Z,78.50
2018-09-11T06:29:49.144Z,78.69
2018-09-11T06:30:49.471Z,78.98
2018-09-11T06:31:51.414Z,78.88
2018-09-11T06:33:04.429Z,78.98
2018-09-11T06:34:14.075Z,78.59
2018-09-11T06:35:11.311Z,79.17
2018-09-11T06:36:14.188Z,78.98
2018-09-11T06:38:26.703Z,78.59
2018-09-11T06:39:35.207Z,79.36
2018-09-11T06:40:40.750Z,79.55
2018-09-11T06:41:46.282Z,79.46
2018-09-11T06:43:01.859Z,79.46
2018-09-11T06:44:00.946Z,79.46
2018-09-11T06:46:02.605Z,79.75
2018-09-11T06:47:15.210Z,79.84
2018-09-11T06:48:17.269Z,79.94
2018-09-11T06:49:23.523Z,79.84
2018-09-11T06:51:38.493Z,80.04
2018-09-11T06:52:37.066Z,79.65
2018-09-11T06:53:39.123Z,79.94
2018-09-11T06:54:53.503Z,79.75
2018-09-11T06:55:55.124Z,80.04
2018-09-11T06:57:04.754Z,79.27
2018-09-11T06:58:05.992Z,79.75
2018-09-11T07:00:25.781Z,79.84
2018-09-11T07:02:44.021Z,80.61
2018-09-11T07:03:35.325Z,79.75
2018-09-11T07:04:54.276Z,79.27
2018-09-11T07:05:45.692Z,79.46
2018-09-11T07:06:49.377Z,79.36
2018-09-11T07:07:56.450Z,79.65
2018-09-11T07:09:08.032Z,79.17
2018-09-11T07:12:15.348Z,79.50
2018-09-11T07:13:25.576Z,78.73
2018-09-11T07:14:27.226Z,79.98
2018-09-11T07:15:57.547Z,78.63
2018-09-11T07:16:49.668Z,79.30
2018-09-11T07:17:52.545Z,78.73
2018-09-11T07:18:59.617Z,78.44
2018-09-11T07:20:09.543Z,78.15
2018-09-11T07:21:11.000Z,78.06
2018-09-11T07:22:14.902Z,78.53
2018-09-11T07:23:18.704Z,78.44
2018-09-11T07:24:27.820Z,78.63
2018-09-11T07:25:21.174Z,78.44
2018-09-11T07:26:46.074Z,78.73
2018-09-11T07:27:35.428Z,78.92
2018-09-11T07:28:50.797Z,78.63
2018-09-11T07:29:47.528Z,78.44
2018-09-11T07:30:53.785Z,77.86
2018-09-11T07:32:01.372Z,78.15
2018-09-11T07:32:59.744Z,78.44
2018-09-11T07:34:27.199Z,78.34
2018-09-11T07:35:17.990Z,78.28
2018-09-11T07:36:34.284Z,78.00
2018-09-11T07:37:29.381Z,78.28
2018-09-11T07:38:37.371Z,77.90
2018-09-11T07:39:37.070Z,78.48
2018-09-11T07:40:59.918Z,78.09
2018-09-11T07:41:54.086Z,78.38
2018-09-11T07:43:00.905Z,78.28
2018-09-11T07:44:06.391Z,78.28
2018-09-11T07:45:12.030Z,78.38
2018-09-11T07:46:25.559Z,78.19
2018-09-11T07:47:15.531Z,78.48
2018-09-11T07:48:28.861Z,78.09
2018-09-11T07:50:34.809Z,77.71
2018-09-11T07:51:45.777Z,78.00
2018-09-11T07:53:04.937Z,78.19
2018-09-11T07:54:00.751Z,78.00
2018-09-11T07:55:05.158Z,78.28
2018-09-11T07:57:06.201Z,78.00
2018-09-11T07:59:21.883Z,78.13
2018-09-11T08:00:30.808Z,77.94
2018-09-11T08:01:38.600Z,77.17
2018-09-11T08:02:44.443Z,77.26
2018-09-11T08:04:07.903Z,76.88
2018-09-11T08:04:44.155Z,77.84
2018-09-11T08:06:03.107Z,78.03
2018-09-11T08:07:23.698Z,77.08
2018-09-11T08:09:38.227Z,77.01
2018-09-11T08:10:18.604Z,76.15
2018-09-11T08:11:31.004Z,76.53
2018-09-11T08:12:41.848Z,76.06
2018-09-11T08:13:42.697Z,76.34
2018-09-11T08:14:54.793Z,75.76
2018-09-11T08:16:04.629Z,76.44
2018-09-11T08:17:00.644Z,76.25
2018-09-11T08:18:05.059Z,76.06
2018-09-11T08:19:07.936Z,76.06
2018-09-11T08:20:21.466Z,75.96
2018-09-11T08:21:15.945Z,76.44
2018-09-11T08:22:12.260Z,76.15
2018-09-11T08:23:16.060Z,76.82
2018-09-11T08:24:39.416Z,75.96
2018-09-11T08:25:48.236Z,76.15
2018-09-11T08:26:48.140Z,76.86
2018-09-11T08:29:06.590Z,75.71
2018-09-11T08:30:01.379Z,75.80
2018-09-11T08:31:11.216Z,76.18
2018-09-11T08:32:08.160Z,75.32
2018-09-11T08:33:06.318Z,75.61
2018-09-11T08:35:27.023Z,75.61
2018-09-11T08:36:34.093Z,75.61
2018-09-11T08:38:48.144Z,75.32
2018-09-11T08:39:46.623Z,75.03
2018-09-11T08:41:48.988Z,74.45
2018-09-11T08:43:06.819Z,75.26
2018-09-11T08:45:17.181Z,75.07
2018-09-11T08:46:22.103Z,74.10
2018-09-11T08:48:26.323Z,75.16
2018-09-11T08:49:43.540Z,74.49
2018-09-11T08:50:51.943Z,74.49
2018-09-11T08:51:39.967Z,73.82
2018-09-11T08:53:57.805Z,73.62
2018-09-11T08:55:01.498Z,73.72
2018-09-11T08:56:04.175Z,74.10
2018-09-11T08:57:09.296Z,74.10
2018-09-11T08:58:16.484Z,74.49
2018-09-11T08:59:19.354Z,74.49
2018-09-11T09:00:21.716Z,74.01
2018-09-11T09:01:27.975Z,74.01
2018-09-11T09:02:38.427Z,73.33
2018-09-11T09:04:51.148Z,73.27
2018-09-11T09:05:56.681Z,74.05
2018-09-11T09:07:02.320Z,74.14
2018-09-11T09:08:10.420Z,73.47
2018-09-11T09:09:08.792Z,73.66
2018-09-11T09:10:21.499Z,73.47
2018-09-11T09:11:20.690Z,72.69
2018-09-11T09:12:27.354Z,72.60
2018-09-11T09:13:40.575Z,72.92
2018-09-11T09:14:45.703Z,72.73
2018-09-11T09:15:45.477Z,72.73
2018-09-11T09:16:52.991Z,73.41
2018-09-11T09:17:50.646Z,72.73
2018-09-11T09:19:00.380Z,73.60
2018-09-11T09:20:03.461Z,73.11
2018-09-11T09:21:21.799Z,72.48
2018-09-11T09:22:17.197Z,72.09
2018-09-11T09:26:39.157Z,71.42
2018-09-11T09:28:48.077Z,70.64
2018-09-11T09:30:02.938Z,71.03
2018-09-11T09:32:17.803Z,71.70
2018-09-11T09:34:20.382Z,71.32
2018-09-11T09:35:30.733Z,71.06
2018-09-11T09:36:30.704Z,71.03
2018-09-11T09:37:36.178Z,70.68
2018-09-11T09:38:45.609Z,70.10
2018-09-11T09:39:55.349Z,69.90
2018-09-11T09:40:58.842Z,70.20
2018-09-11T09:42:02.944Z,69.90
2018-09-11T09:43:13.407Z,69.62
2018-09-11T09:44:12.487Z,70.10
2018-09-11T09:45:11.369Z,70.20
2018-09-11T09:46:18.136Z,69.71
2018-09-11T09:49:45.709Z,69.56
2018-09-11T09:50:43.672Z,69.46
2018-09-11T09:52:59.866Z,70.23
2018-09-11T09:53:58.030Z,69.74
2018-09-11T09:55:06.539Z,68.20
2018-09-11T09:56:08.594Z,68.98
2018-09-11T09:57:13.215Z,68.30
2018-09-11T09:58:31.656Z,68.40
2018-09-11T09:59:23.677Z,67.24
2018-09-11T10:01:42.129Z,67.43
2018-09-11T10:02:50.125Z,67.62
2018-09-11T10:03:49.519Z,67.66
2018-09-11T10:06:00.697Z,66.94
2018-09-11T10:07:13.424Z,68.24
2018-09-11T10:08:16.693Z,68.04
2018-09-11T10:09:21.517Z,67.08
2018-09-11T10:10:19.884Z,66.88
2018-09-11T10:11:27.882Z,67.46
2018-09-11T10:12:32.815Z,67.27
2018-09-11T10:13:52.793Z,67.08
2018-09-11T10:14:49.930Z,67.27
2018-09-11T10:16:01.199Z,67.36
2018-09-11T10:17:09.197Z,67.75
2018-09-11T10:18:08.385Z,67.21
2018-09-11T10:19:03.067Z,67.21
2018-09-11T10:20:21.509Z,66.53
2018-09-11T10:21:18.753Z,66.24
2018-09-11T10:22:29.726Z,67.11
2018-09-11T10:23:32.287Z,66.05
2018-09-11T10:24:38.749Z,65.66
2018-09-11T10:25:43.568Z,66.24
2018-09-11T10:30:05.519Z,65.20
2018-09-11T10:32:18.135Z,65.01
2018-09-11T10:33:42.535Z,64.72
2018-09-11T10:34:32.997Z,65.40
2018-09-11T10:35:42.533Z,65.01
2018-09-11T10:36:48.071Z,65.11
2018-09-11T10:37:56.476Z,64.07
2018-09-11T10:38:39.792Z,64.07
2018-09-11T10:40:03.764Z,63.69
2018-09-11T10:41:23.847Z,63.11
2018-09-11T10:42:32.248Z,63.89
2018-09-11T10:44:25.918Z,63.31
2018-09-11T10:45:32.072Z,63.40
2018-09-11T10:46:44.175Z,63.34
2018-09-11T10:48:53.250Z,62.95
2018-09-11T10:50:30.791Z,63.14
2018-09-11T10:51:43.557Z,63.62
2018-09-11T10:52:20.597Z,63.34
2018-09-11T10:53:37.573Z,62.85
2018-09-11T10:55:03.822Z,62.07
2018-09-11T10:55:36.883Z,62.07
2018-09-11T10:57:11.087Z,61.59
2018-09-11T10:58:17.710Z,62.10
2018-09-11T10:58:58.713Z,61.62
2018-09-11T11:00:06.302Z,61.52
2018-09-11T11:01:26.792Z,60.75
2018-09-11T11:02:26.390Z,60.75
2018-09-11T11:03:11.552Z,61.62
2018-09-11T11:04:46.585Z,60.55
2018-09-11T11:05:28.466Z,60.10
2018-09-11T11:06:31.446Z,59.39
2018-09-11T11:07:41.694Z,59.39
2018-09-11T11:08:33.818Z,60.07
2018-09-11T11:09:51.953Z,60.46
2018-09-11T11:10:52.167Z,59.88
2018-09-11T11:11:59.963Z,59.97
2018-09-11T11:13:00.991Z,60.58
2018-09-11T11:14:05.203Z,60.39
2018-09-11T11:15:16.371Z,59.61
2018-09-11T11:16:07.371Z,58.45
2018-09-11T11:17:34.616Z,59.52
2018-09-11T11:18:26.636Z,59.42
2018-09-11T11:19:35.654Z,59.52
2018-09-11T11:23:58.322Z,59.45
2018-09-11T11:25:59.263Z,59.55
2018-09-11T11:27:03.604Z,58.97
2018-09-11T11:28:27.545Z,58.65
2018-09-11T11:29:09.738Z,58.77
2018-09-11T11:31:30.951Z,57.61
2018-09-11T11:32:39.050Z,57.32
2018-09-11T11:33:49.418Z,57.61
2018-09-11T11:34:48.998Z,57.61
2018-09-11T11:35:55.190Z,57.90
2018-09-11T11:38:03.361Z,56.83
2018-09-11T11:39:29.070Z,57.03
2018-09-11T11:40:21.708Z,56.74
2018-09-11T11:41:16.701Z,57.51
2018-09-11T11:43:26.039Z,57.03
2018-09-11T11:44:28.916Z,57.70
2018-09-11T11:45:47.153Z,56.86
2018-09-11T11:46:51.169Z,56.67
2018-09-11T11:47:46.448Z,55.21
2018-09-11T11:49:05.504Z,55.57
2018-09-11T11:50:10.530Z,55.96
2018-09-11T11:52:19.671Z,55.41
2018-09-11T11:53:16.499Z,56.18
2018-09-11T11:54:29.833Z,56.28
2018-09-11T11:55:36.689Z,55.99
2018-09-11T11:56:35.990Z,56.57
2018-09-11T11:57:36.913Z,57.06
2018-09-11T11:58:45.434Z,55.41
2018-09-11T11:59:48.298Z,54.92
2018-09-11T12:01:09.504Z,55.31
2018-09-11T12:06:29.108Z,55.53
2018-09-11T12:08:33.220Z,55.14
2018-09-11T12:10:50.442Z,55.63
2018-09-11T12:12:08.470Z,54.94
2018-09-11T12:14:01.829Z,54.66
2018-09-11T12:15:06.859Z,54.75
2018-09-11T12:16:20.112Z,54.66
2018-09-11T12:18:39.342Z,53.30
2018-09-11T12:19:46.010Z,53.69
2018-09-11T12:20:52.572Z,54.75
2018-09-11T12:22:08.657Z,54.85
2018-09-11T12:22:58.733Z,55.33
2018-09-11T12:23:57.525Z,55.17
2018-09-11T12:25:10.730Z,54.39
2018-09-11T12:26:36.688Z,54.88
2018-09-11T12:27:21.827Z,54.10
2018-09-11T12:28:28.394Z,54.58
2018-09-11T12:29:16.505Z,53.71
2018-09-11T12:30:26.756Z,54.58
2018-09-11T12:31:35.470Z,55.36
2018-09-11T12:33:39.583Z,55.10
2018-09-11T12:34:39.900Z,55.29
2018-09-11T12:36:04.282Z,54.61
2018-09-11T12:36:56.200Z,54.13
2018-09-11T12:38:08.806Z,53.93
2018-09-11T12:39:11.886Z,52.67
2018-09-11T12:41:22.758Z,52.09
2018-09-11T12:42:26.760Z,50.92
2018-09-11T12:43:34.348Z,51.77
2018-09-11T12:44:36.506Z,52.35
2018-09-11T12:45:43.740Z,52.55
2018-09-11T12:46:45.409Z,53.06
2018-09-11T12:47:52.934Z,53.16
2018-09-11T12:48:53.024Z,53.64
2018-09-11T12:49:59.792Z,52.76
2018-09-11T12:51:15.371Z,53.45
2018-09-11T12:53:18.970Z,52.28
2018-09-11T12:54:25.741Z,51.31
2018-09-11T12:56:57.395Z,52.67
2018-09-11T12:57:44.400Z,53.25
2018-09-11T12:58:46.661Z,51.89
2018-09-11T12:59:50.460Z,51.89
2018-09-11T13:01:00.707Z,52.09
2018-09-11T13:02:14.521Z,51.50
2018-09-11T13:03:15.885Z,50.85
2018-09-11T13:04:29.103Z,50.92
2018-09-11T13:05:30.248Z,50.24
2018-09-11T13:06:27.089Z,51.11
2018-09-11T13:08:48.602Z,52.11
2018-09-11T13:09:53.214Z,51.14
2018-09-11T13:11:54.461Z,52.01
2018-09-11T13:13:05.325Z,52.01
2018-09-11T13:14:08.303Z,51.14
2018-09-11T13:15:02.850Z,50.75
2018-09-11T13:16:17.232Z,51.26
2018-09-11T13:17:33.319Z,50.48
2018-09-11T13:18:27.289Z,51.17
2018-09-11T13:19:38.867Z,51.55
2018-09-11T13:20:42.663Z,52.16
2018-09-11T13:21:40.939Z,50.51
2018-09-11T13:22:54.153Z,48.88
2018-09-11T13:24:07.372Z,49.68
2018-09-11T13:25:11.195Z,46.97
2018-09-11T13:26:30.027Z,46.61
2018-09-11T13:27:13.855Z,45.29
2018-09-11T13:29:28.005Z,42.56
2018-09-11T13:30:47.782Z,40.13
2018-09-11T13:31:44.917Z,36.80
2018-09-11T13:33:49.493Z,32.24
2018-09-11T13:35:52.327Z,30.29
2018-09-11T13:37:10.578Z,28.23
2018-09-11T13:38:16.312Z,26.17
2018-09-11T13:39:23.383Z,26.04
2018-09-11T13:40:20.934Z,25.95
2018-09-11T13:42:32.319Z,26.38
2018-09-11T13:43:51.684Z,27.26
2018-09-11T13:44:48.515Z,25.49
2018-09-11T13:46:57.874Z,25.18
2018-09-11T13:48:01.656Z,26.62
2018-09-11T13:50:20.513Z,27.48
2018-09-11T13:51:32.501Z,28.64
2018-09-11T13:53:27.703Z,29.66
2018-09-11T13:54:35.502Z,29.93
2018-09-11T13:56:46.782Z,32.15
2018-09-11T13:57:48.939Z,32.41
2018-09-11T14:00:12.205Z,33.64
2018-09-11T14:01:11.196Z,34.20
2018-09-11T14:02:31.483Z,35.55
2018-09-11T14:03:15.306Z,35.24
2018-09-11T14:04:34.356Z,35.81
2018-09-11T14:06:37.761Z,37.04
2018-09-11T14:07:46.779Z,36.93
2018-09-11T14:08:48.220Z,38.49
2018-09-11T14:09:49.049Z,39.16
2018-09-11T14:10:54.692Z,39.04
2018-09-11T14:12:02.483Z,39.51
2018-09-11T14:13:11.809Z,40.58
2018-09-11T14:14:12.033Z,40.66
2018-09-11T14:15:25.957Z,41.13
2018-09-11T14:16:38.470Z,41.61
2018-09-11T14:17:31.040Z,42.76
2018-09-11T14:18:37.145Z,42.38
2018-09-11T14:19:35.010Z,43.15
2018-09-11T14:21:57.344Z,42.94
2018-09-11T14:22:56.023Z,43.52
2018-09-11T14:23:57.772Z,44.28
2018-09-11T14:25:08.944Z,44.76
2018-09-11T14:26:12.845Z,45.04
2018-09-11T14:27:15.108Z,44.86
2018-09-11T14:29:32.951Z,45.72
2018-09-11T14:30:31.931Z,46.40
2018-09-11T14:31:44.948Z,46.08
2018-09-11T14:32:49.668Z,46.08
2018-09-11T14:33:56.652Z,46.28
2018-09-11T14:34:55.824Z,46.57
2018-09-11T14:36:02.286Z,46.96
2018-09-11T14:37:05.157Z,48.13
2018-09-11T14:38:05.281Z,48.20
2018-09-11T14:39:24.084Z,47.32
2018-09-11T14:40:39.397Z,47.61
2018-09-11T14:41:32.436Z,47.32
2018-09-11T14:42:43.504Z,46.94
2018-09-11T14:43:49.657Z,47.42
2018-09-11T14:45:53.257Z,48.97
2018-09-11T14:47:01.979Z,48.68
2018-09-11T14:48:00.858Z,48.95
2018-09-11T14:49:07.019Z,47.88
2018-09-11T14:50:11.727Z,48.08
2018-09-11T14:53:38.174Z,48.57
2018-09-11T14:54:40.847Z,47.88
2018-09-11T14:55:49.265Z,48.35
2018-09-11T14:56:47.110Z,49.99
2018-09-11T14:57:59.714Z,50.68
2018-09-11T14:58:58.800Z,50.38
2018-09-11T15:00:04.860Z,49.51
2018-09-11T15:01:16.635Z,49.51
2018-09-11T15:04:27.515Z,50.29
2018-09-11T15:05:35.258Z,50.48
2018-09-11T15:06:45.147Z,50.38
2018-09-11T15:08:00.241Z,50.87
2018-09-11T15:08:55.934Z,50.68
2018-09-11T15:10:05.757Z,50.84
2018-09-11T15:11:02.590Z,50.68
2018-09-11T15:12:02.187Z,50.96
2018-09-11T15:13:06.093Z,50.96
2018-09-11T15:14:05.588Z,51.81
2018-09-11T15:15:22.800Z,52.40
2018-09-11T15:16:23.729Z,52.20
2018-09-11T15:17:28.550Z,51.23
2018-09-11T15:19:43.619Z,51.53
2018-09-11T15:20:53.056Z,51.81
2018-09-11T15:21:48.449Z,51.04
2018-09-11T15:23:02.692Z,50.26
2018-09-11T15:23:55.737Z,51.04
2018-09-11T15:25:21.042Z,50.74
2018-09-11T15:26:23.522Z,50.94
2018-09-11T15:29:33.681Z,50.84
2018-09-11T15:30:35.727Z,50.94
2018-09-11T15:31:44.852Z,50.84
2018-09-11T15:32:55.613Z,51.14
2018-09-11T15:34:02.897Z,51.23
2018-09-11T15:35:08.326Z,50.65
2018-09-11T15:36:21.854Z,51.14
2018-09-11T15:37:30.675Z,50.84
2018-09-11T15:38:08.353Z,50.74
2018-09-11T15:39:48.709Z,51.72
2018-09-11T15:40:23.839Z,51.33
2018-09-11T15:41:33.066Z,50.92
2018-09-11T15:42:43.011Z,51.53
2018-09-11T15:44:40.867Z,51.72
2018-09-11T15:46:08.119Z,52.20
2018-09-11T15:47:08.975Z,52.20
2018-09-11T15:48:14.593Z,51.50
2018-09-11T15:49:14.697Z,52.08
2018-09-11T15:51:26.392Z,52.08
2018-09-11T15:52:33.540Z,52.18
2018-09-11T15:53:34.091Z,51.98
2018-09-11T15:54:46.386Z,51.79
2018-09-11T15:55:54.882Z,52.08
2018-09-11T15:57:14.490Z,51.31
2018-09-11T15:58:06.485Z,51.59
2018-09-11T15:59:14.695Z,51.69
2018-09-11T16:00:13.467Z,51.31
2018-09-11T16:01:24.646Z,51.31
2018-09-11T16:03:47.182Z,50.62
2018-09-11T16:04:34.081Z,52.08
2018-09-11T16:05:35.112Z,51.31
2018-09-11T16:06:57.378Z,50.62
2018-09-11T16:07:46.603Z,51.21
2018-09-11T16:09:08.830Z,51.98
2018-09-11T16:10:08.843Z,51.40
2018-09-11T16:11:18.884Z,50.62
2018-09-11T16:13:18.081Z,50.34
2018-09-11T16:16:29.265Z,49.95
2018-09-11T16:17:41.668Z,50.34
2018-09-11T16:18:52.940Z,49.24
2018-09-11T16:19:49.672Z,49.34
2018-09-11T16:20:59.008Z,49.95
2018-09-11T16:23:11.205Z,49.17
2018-09-11T16:24:21.361Z,49.27
2018-09-11T16:25:13.887Z,49.05
2018-09-11T16:26:18.401Z,48.85
2018-09-11T16:27:30.494Z,49.07
2018-09-11T16:28:46.274Z,48.76
2018-09-11T16:29:52.950Z,48.88
2018-09-11T16:30:41.783Z,49.44
2018-09-11T16:31:46.812Z,49.34
2018-09-11T16:33:00.144Z,49.05
2018-09-11T16:34:01.175Z,49.34
2018-09-11T16:35:13.565Z,50.21
2018-09-11T16:36:14.721Z,49.15
2018-09-11T16:37:17.271Z,48.95
2018-09-11T16:38:25.675Z,48.85
2018-09-11T16:40:36.750Z,48.95
2018-09-11T16:41:41.982Z,49.34
2018-09-11T16:42:51.719Z,49.24
2018-09-11T16:43:44.969Z,49.24
2018-09-11T16:45:10.270Z,50.41
2018-09-11T16:46:01.993Z,50.21
2018-09-11T16:48:06.608Z,50.41